createdAt,value
2019-05-29T00:00:29.094Z,7.10
2019-05-29T00:02:55.345Z,7.10
2019-05-29T00:05:22.185Z,7.00
2019-05-29T00:07:49.049Z,7.00
2019-05-29T00:10:15.962Z,7.00
2019-05-29T00:12:42.127Z,6.90
2019-05-29T00:15:08.485Z,7.00
2019-05-29T00:17:36.373Z,6.90
2019-05-29T00:20:02.429Z,6.90
2019-05-29T00:22:28.431Z,6.90
2019-05-29T00:24:54.562Z,6.90
2019-05-29T00:27:20.593Z,6.90
2019-05-29T00:29:46.738Z,6.90
2019-05-29T00:32:13.480Z,6.90
2019-05-29T00:34:39.142Z,6.90
2019-05-29T00:37:06.269Z,6.90
2019-05-29T00:39:32.294Z,6.80
2019-05-29T00:41:59.322Z,6.70
2019-05-29T00:44:34.271Z,6.70
2019-05-29T00:46:52.995Z,6.80
2019-05-29T00:49:19.333Z,6.80
2019-05-29T00:51:46.988Z,6.70
2019-05-29T00:54:14.460Z,6.60
2019-05-29T00:56:40.985Z,6.60
2019-05-29T00:59:07.094Z,6.60
2019-05-29T01:01:33.360Z,6.60
2019-05-29T01:03:59.801Z,6.60
2019-05-29T01:06:25.983Z,6.50
2019-05-29T01:08:52.152Z,6.50
2019-05-29T01:11:19.120Z,6.50
2019-05-29T01:13:45.995Z,6.50
2019-05-29T01:16:13.352Z,6.40
2019-05-29T01:18:39.232Z,6.40
2019-05-29T01:21:05.564Z,6.40
2019-05-29T01:23:31.674Z,6.40
2019-05-29T01:25:58.664Z,6.50
2019-05-29T01:28:26.422Z,6.40
2019-05-29T01:30:52.672Z,6.50
2019-05-29T01:33:20.517Z,6.40
2019-05-29T01:35:45.886Z,6.40
2019-05-29T01:38:12.090Z,6.40
2019-05-29T01:40:38.351Z,6.40
2019-05-29T01:43:05.470Z,6.30
2019-05-29T01:45:32.431Z,6.30
2019-05-29T01:47:58.643Z,6.30
2019-05-29T01:50:25.926Z,6.30
2019-05-29T01:52:52.809Z,6.20
2019-05-29T01:55:19.799Z,5.90
2019-05-29T01:57:45.344Z,6.20
2019-05-29T02:00:11.545Z,6.10
2019-05-29T02:02:37.919Z,5.90
2019-05-29T02:05:04.298Z,6.10
2019-05-29T02:07:30.598Z,6.10
2019-05-29T02:09:57.182Z,6.10
2019-05-29T02:12:24.443Z,6.10
2019-05-29T02:14:49.990Z,6.10
2019-05-29T02:17:17.650Z,6.10
2019-05-29T02:19:43.495Z,6.10
2019-05-29T02:22:10.676Z,6.00
2019-05-29T02:24:37.688Z,6.00
2019-05-29T02:27:03.790Z,6.00
2019-05-29T02:29:30.691Z,6.00
2019-05-29T02:31:57.770Z,5.90
2019-05-29T02:34:25.522Z,5.90
2019-05-29T02:36:50.877Z,5.90
2019-05-29T02:39:21.010Z,5.90
2019-05-29T02:41:45.944Z,5.90
2019-05-29T02:44:12.136Z,5.90
2019-05-29T02:46:39.008Z,6.00
2019-05-29T02:49:05.769Z,5.90
2019-05-29T02:51:32.313Z,5.90
2019-05-29T02:53:58.777Z,5.00
2019-05-29T02:56:28.439Z,5.90
2019-05-29T02:58:53.707Z,5.90
2019-05-29T03:01:21.396Z,5.90
2019-05-29T03:03:46.207Z,5.90
2019-05-29T03:06:14.488Z,5.90
2019-05-29T03:08:41.710Z,5.80
2019-05-29T03:11:07.967Z,5.80
2019-05-29T03:13:34.063Z,5.80
2019-05-29T03:16:10.588Z,5.80
2019-05-29T03:18:27.919Z,5.80
2019-05-29T03:20:52.298Z,5.90
2019-05-29T03:23:19.014Z,5.90
2019-05-29T03:25:45.969Z,5.90
2019-05-29T03:28:12.002Z,6.00
2019-05-29T03:30:45.743Z,6.20
2019-05-29T03:33:04.836Z,6.20
2019-05-29T03:35:38.050Z,6.30
2019-05-29T03:37:58.961Z,6.40
2019-05-29T03:40:22.930Z,6.40
2019-05-29T03:42:50.171Z,6.70
2019-05-29T03:45:16.196Z,6.70
2019-05-29T03:47:42.350Z,6.70
2019-05-29T03:50:09.129Z,6.70
2019-05-29T03:52:35.135Z,6.70
2019-05-29T03:55:01.942Z,6.80
2019-05-29T03:57:29.691Z,6.80
2019-05-29T03:59:54.245Z,6.90
2019-05-29T04:02:20.233Z,7.10
2019-05-29T04:04:46.353Z,7.30
2019-05-29T04:07:12.438Z,7.40
2019-05-29T04:09:38.452Z,7.60
2019-05-29T04:12:05.171Z,7.70
2019-05-29T04:14:33.494Z,7.60
2019-05-29T04:17:00.383Z,7.80
2019-05-29T04:19:25.117Z,7.90
2019-05-29T04:21:51.217Z,7.80
2019-05-29T04:24:17.233Z,8.60
2019-05-29T04:26:43.319Z,7.80
2019-05-29T04:29:09.360Z,7.70
2019-05-29T04:31:36.570Z,7.70
2019-05-29T04:34:02.205Z,7.60
2019-05-29T04:36:28.664Z,7.60
2019-05-29T04:38:55.037Z,7.60
2019-05-29T04:41:21.873Z,7.70
2019-05-29T04:43:48.830Z,7.60
2019-05-29T04:46:14.918Z,7.60
2019-05-29T04:48:42.674Z,7.60
2019-05-29T04:51:08.812Z,7.70
2019-05-29T04:53:37.516Z,7.70
2019-05-29T04:56:02.128Z,7.70
2019-05-29T04:58:28.806Z,7.80
2019-05-29T05:00:58.965Z,7.90
2019-05-29T05:03:21.927Z,8.00
2019-05-29T05:05:48.009Z,8.00
2019-05-29T05:08:14.024Z,8.10
2019-05-29T05:10:40.888Z,8.20
2019-05-29T05:13:06.313Z,8.30
2019-05-29T05:15:33.671Z,8.50
2019-05-29T05:18:00.559Z,8.60
2019-05-29T05:20:26.781Z,8.60
2019-05-29T05:22:53.792Z,9.10
2019-05-29T05:25:19.964Z,9.10
2019-05-29T05:27:47.149Z,9.40
2019-05-29T05:30:13.327Z,9.30
2019-05-29T05:32:40.935Z,9.40
2019-05-29T05:35:06.016Z,9.90
2019-05-29T05:37:33.000Z,9.30
2019-05-29T05:39:59.451Z,9.40
2019-05-29T05:42:26.438Z,9.50
2019-05-29T05:44:52.494Z,9.60
2019-05-29T05:47:18.623Z,9.60
2019-05-29T05:49:44.652Z,9.70
2019-05-29T05:52:10.705Z,9.80
2019-05-29T05:54:37.605Z,9.90
2019-05-29T05:57:03.844Z,10.00
2019-05-29T05:59:30.125Z,10.00
2019-05-29T06:01:56.928Z,10.10
2019-05-29T06:04:23.228Z,9.90
2019-05-29T06:06:49.456Z,10.40
2019-05-29T06:09:15.709Z,10.40
2019-05-29T06:11:42.569Z,11.80
2019-05-29T06:14:08.026Z,10.90
2019-05-29T06:16:34.460Z,11.10
2019-05-29T06:19:00.585Z,11.50
2019-05-29T06:21:26.957Z,11.80
2019-05-29T06:23:53.229Z,11.90
2019-05-29T06:26:19.471Z,12.50
2019-05-29T06:28:46.783Z,12.80
2019-05-29T06:31:13.787Z,13.20
2019-05-29T06:33:41.427Z,13.20
2019-05-29T06:36:06.444Z,14.40
2019-05-29T06:38:35.624Z,15.70
2019-05-29T06:41:02.986Z,18.20
2019-05-29T06:43:29.206Z,18.10
2019-05-29T06:45:55.349Z,19.10
2019-05-29T06:48:40.562Z,20.90
2019-05-29T06:50:49.011Z,20.90
2019-05-29T06:53:15.212Z,21.00
2019-05-29T06:55:42.103Z,21.00
2019-05-29T06:58:07.659Z,19.60
2019-05-29T07:00:35.501Z,18.50
2019-05-29T07:03:00.557Z,17.50
2019-05-29T07:05:26.575Z,17.40
2019-05-29T07:07:52.819Z,18.20
2019-05-29T07:10:18.996Z,17.80
2019-05-29T07:12:46.398Z,16.90
2019-05-29T07:15:12.160Z,16.60
2019-05-29T07:17:38.622Z,16.60
2019-05-29T07:20:05.310Z,19.90
2019-05-29T07:22:31.554Z,19.90
2019-05-29T07:24:57.719Z,20.20
2019-05-29T07:27:23.824Z,20.70
2019-05-29T07:29:49.905Z,21.00
2019-05-29T07:32:15.973Z,20.20
2019-05-29T07:34:57.903Z,19.00
2019-05-29T07:37:08.954Z,17.90
2019-05-29T07:39:35.035Z,17.90
2019-05-29T07:42:01.817Z,20.50
2019-05-29T07:44:27.864Z,20.50
2019-05-29T07:46:53.877Z,20.70
2019-05-29T07:49:19.885Z,20.50
2019-05-29T07:51:46.957Z,21.30
2019-05-29T07:54:12.684Z,21.30
2019-05-29T07:56:40.358Z,20.60
2019-05-29T07:59:06.380Z,19.40
2019-05-29T08:01:32.436Z,19.40
2019-05-29T08:03:58.460Z,18.60
2019-05-29T08:06:24.563Z,18.10
2019-05-29T08:08:51.513Z,17.30
2019-05-29T08:11:18.328Z,17.10
2019-05-29T08:13:45.563Z,17.10
2019-05-29T08:16:10.551Z,17.60
2019-05-29T08:18:36.597Z,18.10
2019-05-29T08:21:02.975Z,18.40
2019-05-29T08:23:29.807Z,18.50
2019-05-29T08:25:55.868Z,18.50
2019-05-29T08:28:21.840Z,19.30
2019-05-29T08:30:52.598Z,20.00
2019-05-29T08:33:13.848Z,20.10
2019-05-29T08:35:41.392Z,21.30
2019-05-29T08:38:05.928Z,22.70
2019-05-29T08:40:32.738Z,23.80
2019-05-29T08:42:58.687Z,23.80
2019-05-29T08:45:25.395Z,24.20
2019-05-29T08:47:51.939Z,24.20
2019-05-29T08:50:19.292Z,25.40
2019-05-29T08:52:44.207Z,25.40
2019-05-29T08:55:13.690Z,26.00
2019-05-29T08:57:37.335Z,26.00
2019-05-29T09:00:03.513Z,26.20
2019-05-29T09:02:29.636Z,26.30
2019-05-29T09:04:55.683Z,26.50
2019-05-29T09:07:21.740Z,26.60
2019-05-29T09:09:49.020Z,25.20
2019-05-29T09:12:13.870Z,23.20
2019-05-29T09:14:40.055Z,22.90
2019-05-29T09:17:06.087Z,22.20
2019-05-29T09:19:32.102Z,21.50
2019-05-29T09:21:58.168Z,22.20
2019-05-29T09:24:24.218Z,22.60
2019-05-29T09:26:50.267Z,22.40
2019-05-29T09:29:19.946Z,22.50
2019-05-29T09:31:42.392Z,21.60
2019-05-29T09:34:08.396Z,21.40
2019-05-29T09:36:34.455Z,20.70
2019-05-29T09:39:01.237Z,20.20
2019-05-29T09:41:28.022Z,20.90
2019-05-29T09:43:59.168Z,20.90
2019-05-29T09:46:21.858Z,23.20
2019-05-29T09:48:50.022Z,23.20
2019-05-29T09:51:21.277Z,22.80
2019-05-29T09:53:39.221Z,22.10
2019-05-29T09:56:05.265Z,21.30
2019-05-29T09:58:31.334Z,20.90
2019-05-29T10:01:15.517Z,20.60
2019-05-29T10:03:23.604Z,20.60
2019-05-29T10:05:50.325Z,22.80
2019-05-29T10:08:17.158Z,22.80
2019-05-29T10:10:42.538Z,23.10
2019-05-29T10:13:08.576Z,23.40
2019-05-29T10:15:35.355Z,22.60
2019-05-29T10:18:02.752Z,22.40
2019-05-29T10:20:29.075Z,21.70
2019-05-29T10:22:55.685Z,21.20
2019-05-29T10:25:21.958Z,21.80
2019-05-29T10:27:48.722Z,22.00
2019-05-29T10:30:14.729Z,22.00
2019-05-29T10:32:42.412Z,21.90
2019-05-29T10:35:07.597Z,20.90
2019-05-29T10:37:33.671Z,20.90
2019-05-29T10:39:59.676Z,20.50
2019-05-29T10:42:25.689Z,20.60
2019-05-29T10:44:51.745Z,20.90
2019-05-29T10:47:17.837Z,21.20
2019-05-29T10:49:45.558Z,20.40
2019-05-29T10:52:16.825Z,20.40
2019-05-29T10:54:39.368Z,20.90
2019-05-29T10:57:03.729Z,21.30
2019-05-29T10:59:30.502Z,21.40
2019-05-29T11:01:56.504Z,21.40
2019-05-29T11:04:22.508Z,20.80
2019-05-29T11:06:50.008Z,20.30
2019-05-29T11:09:14.613Z,20.30
2019-05-29T11:11:40.626Z,20.50
2019-05-29T11:14:07.424Z,20.40
2019-05-29T11:16:33.428Z,20.30
2019-05-29T11:18:59.447Z,20.50
2019-05-29T11:21:25.429Z,20.40
2019-05-29T11:23:53.636Z,20.40
2019-05-29T11:26:18.513Z,20.40
2019-05-29T11:28:44.599Z,19.40
2019-05-29T11:31:11.501Z,21.20
2019-05-29T11:33:37.550Z,21.10
2019-05-29T11:36:10.730Z,20.60
2019-05-29T11:38:29.663Z,20.80
2019-05-29T11:41:21.083Z,21.10
2019-05-29T11:43:22.883Z,21.20
2019-05-29T11:45:48.908Z,21.20
2019-05-29T11:48:14.943Z,21.10
2019-05-29T11:50:41.057Z,21.20
2019-05-29T11:53:07.059Z,21.10
2019-05-29T11:55:33.082Z,20.70
2019-05-29T11:58:00.040Z,20.50
2019-05-29T12:00:25.206Z,20.00
2019-05-29T12:02:51.614Z,19.70
2019-05-29T12:05:17.314Z,19.50
2019-05-29T12:07:43.301Z,19.40
2019-05-29T12:10:09.510Z,19.70
2019-05-29T12:12:35.429Z,19.80
2019-05-29T12:15:11.039Z,20.10
2019-05-29T12:17:28.350Z,20.10
2019-05-29T12:19:54.450Z,19.90
2019-05-29T12:22:20.500Z,19.60
2019-05-29T12:24:46.506Z,19.30
2019-05-29T12:27:12.492Z,19.30
2019-05-29T12:29:39.270Z,19.90
2019-05-29T12:32:09.282Z,19.80
2019-05-29T12:34:31.445Z,20.00
2019-05-29T12:36:57.725Z,20.10
2019-05-29T12:39:23.760Z,20.10
2019-05-29T12:41:49.817Z,20.20
2019-05-29T12:44:15.810Z,20.20
2019-05-29T12:46:41.854Z,20.30
2019-05-29T12:49:07.900Z,20.30
2019-05-29T12:51:34.758Z,20.30
2019-05-29T12:54:02.147Z,20.30
2019-05-29T12:56:27.785Z,20.50
2019-05-29T12:58:54.182Z,20.50
2019-05-29T13:01:19.941Z,20.20
2019-05-29T13:03:46.130Z,20.20
2019-05-29T13:06:12.907Z,19.70
2019-05-29T13:08:38.910Z,19.60
2019-05-29T13:11:05.664Z,19.60
2019-05-29T13:13:31.681Z,19.60
2019-05-29T13:15:58.750Z,19.60
2019-05-29T13:18:23.744Z,19.50
2019-05-29T13:20:50.498Z,19.50
2019-05-29T13:23:17.605Z,19.40
2019-05-29T13:25:43.575Z,19.50
2019-05-29T13:28:09.597Z,19.40
2019-05-29T13:30:35.644Z,19.40
2019-05-29T13:33:03.580Z,19.50
2019-05-29T13:35:27.746Z,19.90
2019-05-29T13:37:54.552Z,20.10
2019-05-29T13:40:21.528Z,20.10
2019-05-29T13:42:47.718Z,20.10
2019-05-29T13:45:18.396Z,20.00
2019-05-29T13:47:39.979Z,20.10
2019-05-29T13:50:10.306Z,20.30
2019-05-29T13:52:33.026Z,20.20
2019-05-29T13:54:59.302Z,20.20
2019-05-29T13:57:25.260Z,20.00
2019-05-29T13:59:51.315Z,19.70
2019-05-29T14:02:18.141Z,19.70
2019-05-29T14:04:44.169Z,19.70
2019-05-29T14:07:10.265Z,19.80
2019-05-29T14:09:37.020Z,20.00
2019-05-29T14:12:05.088Z,20.10
2019-05-29T14:14:29.930Z,20.10
2019-05-29T14:16:56.019Z,20.00
2019-05-29T14:19:22.404Z,20.00
2019-05-29T14:21:48.507Z,20.00
2019-05-29T14:24:28.561Z,19.80
2019-05-29T14:26:41.597Z,19.60
2019-05-29T14:29:07.742Z,19.50
2019-05-29T14:31:33.858Z,19.50
2019-05-29T14:34:00.918Z,19.40
2019-05-29T14:36:26.065Z,18.70
2019-05-29T14:38:52.918Z,18.90
2019-05-29T14:41:18.931Z,18.90
2019-05-29T14:43:44.936Z,18.90
2019-05-29T14:46:12.060Z,18.90
2019-05-29T14:48:37.837Z,18.80
2019-05-29T14:51:04.935Z,18.80
2019-05-29T14:53:29.961Z,19.00
2019-05-29T14:55:55.943Z,19.30
2019-05-29T14:58:22.018Z,19.50
2019-05-29T15:00:48.001Z,19.30
2019-05-29T15:03:14.022Z,19.40
2019-05-29T15:05:40.044Z,19.60
2019-05-29T15:08:06.061Z,19.80
2019-05-29T15:10:32.127Z,19.80
2019-05-29T15:12:58.502Z,19.70
2019-05-29T15:15:24.230Z,19.60
2019-05-29T15:17:50.269Z,19.60
2019-05-29T15:20:16.834Z,19.50
2019-05-29T15:22:42.356Z,19.60
2019-05-29T15:25:18.491Z,19.70
2019-05-29T15:27:36.199Z,20.00
2019-05-29T15:30:02.194Z,20.00
2019-05-29T15:32:28.242Z,20.20
2019-05-29T15:34:55.092Z,20.10
2019-05-29T15:37:21.152Z,20.00
2019-05-29T15:39:47.891Z,20.00
2019-05-29T15:42:15.039Z,20.00
2019-05-29T15:44:40.599Z,20.00
2019-05-29T15:47:06.916Z,20.10
2019-05-29T15:49:32.806Z,20.00
2019-05-29T15:51:58.851Z,19.70
2019-05-29T15:54:24.896Z,19.70
2019-05-29T15:56:50.952Z,19.30
2019-05-29T15:59:18.907Z,19.70
2019-05-29T16:01:43.016Z,19.70
2019-05-29T16:04:09.646Z,19.60
2019-05-29T16:06:35.115Z,19.50
2019-05-29T16:09:01.319Z,19.40
2019-05-29T16:11:28.775Z,19.60
2019-05-29T16:13:54.846Z,19.30
2019-05-29T16:16:20.921Z,19.20
2019-05-29T16:18:47.118Z,19.20
2019-05-29T16:21:14.584Z,19.20
2019-05-29T16:23:39.422Z,19.10
2019-05-29T16:26:05.670Z,19.10
2019-05-29T16:28:31.946Z,19.00
2019-05-29T16:30:58.044Z,19.00
2019-05-29T16:33:24.181Z,18.90
2019-05-29T16:35:50.277Z,18.90
2019-05-29T16:38:17.613Z,18.90
2019-05-29T16:40:42.746Z,18.80
2019-05-29T16:43:08.961Z,18.70
2019-05-29T16:45:35.657Z,18.60
2019-05-29T16:48:01.828Z,18.50
2019-05-29T16:50:27.951Z,18.40
2019-05-29T16:52:54.133Z,18.50
2019-05-29T16:55:21.067Z,18.50
2019-05-29T16:57:46.404Z,18.30
2019-05-29T17:00:13.598Z,18.30
2019-05-29T17:02:39.168Z,18.30
2019-05-29T17:05:05.275Z,18.40
2019-05-29T17:07:31.469Z,18.40
2019-05-29T17:09:57.741Z,18.30
2019-05-29T17:12:30.129Z,18.30
2019-05-29T17:15:03.641Z,18.30
2019-05-29T17:17:34.745Z,17.80
2019-05-29T17:20:02.960Z,18.30
2019-05-29T17:22:29.179Z,18.30
2019-05-29T17:24:56.997Z,18.30
2019-05-29T17:27:23.379Z,18.30
2019-05-29T17:29:49.588Z,18.30
2019-05-29T17:32:16.876Z,18.30
2019-05-29T17:34:42.964Z,18.20
2019-05-29T17:37:10.021Z,18.10
2019-05-29T17:39:37.084Z,18.00
2019-05-29T17:42:05.167Z,18.00
2019-05-29T17:44:31.370Z,19.30
2019-05-29T17:46:58.304Z,17.90
2019-05-29T17:49:33.049Z,18.30
2019-05-29T17:51:50.819Z,17.80
2019-05-29T17:54:17.906Z,16.60
2019-05-29T17:56:43.771Z,17.90
2019-05-29T17:59:09.947Z,17.80
2019-05-29T18:01:36.683Z,17.80
2019-05-29T18:04:02.956Z,17.80
2019-05-29T18:06:29.292Z,17.80
2019-05-29T18:08:55.676Z,17.60
2019-05-29T18:11:23.274Z,17.60
2019-05-29T18:13:49.596Z,17.40
2019-05-29T18:16:17.277Z,17.40
2019-05-29T18:18:42.037Z,17.30
2019-05-29T18:21:08.079Z,17.30
2019-05-29T18:23:34.109Z,17.20
2019-05-29T18:26:00.195Z,17.20
2019-05-29T18:28:26.241Z,17.20
2019-05-29T18:30:52.257Z,17.20
2019-05-29T18:33:18.621Z,17.00
2019-05-29T18:35:44.480Z,17.00
2019-05-29T18:38:10.507Z,16.90
2019-05-29T18:40:36.559Z,16.90
2019-05-29T18:43:02.590Z,16.80
2019-05-29T18:45:29.458Z,16.80
2019-05-29T18:47:54.698Z,16.70
2019-05-29T18:50:21.595Z,16.50
2019-05-29T18:52:47.525Z,16.50
2019-05-29T18:55:13.559Z,16.40
2019-05-29T18:57:39.621Z,16.30
2019-05-29T19:00:06.361Z,16.10
2019-05-29T19:02:32.378Z,16.10
2019-05-29T19:04:59.118Z,15.80
2019-05-29T19:07:25.883Z,15.80
2019-05-29T19:09:51.915Z,15.80
2019-05-29T19:12:17.951Z,15.70
2019-05-29T19:14:43.964Z,15.60
2019-05-29T19:17:09.986Z,15.60
2019-05-29T19:19:36.063Z,15.50
2019-05-29T19:22:02.108Z,15.40
2019-05-29T19:24:28.591Z,15.40
2019-05-29T19:26:56.411Z,15.30
2019-05-29T19:29:25.225Z,15.20
2019-05-29T19:31:51.264Z,15.20
2019-05-29T19:34:17.245Z,15.00
2019-05-29T19:36:44.169Z,14.90
2019-05-29T19:39:10.167Z,14.80
2019-05-29T19:41:36.204Z,14.70
2019-05-29T19:44:02.210Z,14.60
2019-05-29T19:46:28.601Z,14.50
2019-05-29T19:48:54.410Z,14.40
2019-05-29T19:51:21.235Z,14.20
2019-05-29T19:53:47.257Z,14.10
2019-05-29T19:56:13.382Z,14.20
2019-05-29T19:58:39.504Z,14.10
2019-05-29T20:01:06.409Z,13.80
2019-05-29T20:03:32.610Z,13.80
2019-05-29T20:05:58.626Z,13.80
2019-05-29T20:08:24.698Z,13.70
2019-05-29T20:10:50.751Z,13.70
2019-05-29T20:13:16.830Z,13.60
2019-05-29T20:15:43.558Z,13.70
2019-05-29T20:18:09.655Z,13.70
2019-05-29T20:20:36.497Z,13.70
2019-05-29T20:23:01.778Z,13.70
2019-05-29T20:25:28.799Z,13.70
2019-05-29T20:28:05.904Z,13.70
2019-05-29T20:30:19.921Z,13.70
2019-05-29T20:32:45.966Z,13.70
2019-05-29T20:35:11.960Z,13.70
2019-05-29T20:37:38.802Z,13.80
2019-05-29T20:40:04.830Z,13.80
2019-05-29T20:42:32.052Z,13.90
2019-05-29T20:44:57.027Z,13.80
2019-05-29T20:47:23.088Z,13.90
2019-05-29T20:49:49.108Z,13.80
2019-05-29T20:52:15.165Z,13.70
2019-05-29T20:54:41.957Z,13.80
2019-05-29T20:57:08.890Z,13.70
2019-05-29T20:59:35.952Z,13.70
2019-05-29T21:02:01.848Z,13.70
2019-05-29T21:04:27.873Z,13.70
2019-05-29T21:06:53.893Z,13.60
2019-05-29T21:09:19.907Z,13.70
2019-05-29T21:11:46.639Z,13.70
2019-05-29T21:14:12.680Z,13.70
2019-05-29T21:16:39.763Z,13.70
2019-05-29T21:19:04.777Z,13.60
2019-05-29T21:21:30.756Z,13.60
2019-05-29T21:23:56.795Z,13.60
2019-05-29T21:26:22.853Z,13.60
2019-05-29T21:28:50.869Z,13.60
2019-05-29T21:31:14.929Z,13.60
2019-05-29T21:33:45.064Z,13.50
2019-05-29T21:36:08.521Z,13.50
2019-05-29T21:38:34.555Z,13.50
2019-05-29T21:41:00.881Z,13.50
2019-05-29T21:43:27.165Z,13.40
2019-05-29T21:46:01.019Z,13.40
2019-05-29T21:48:27.072Z,13.40
2019-05-29T21:50:53.104Z,13.40
2019-05-29T21:53:19.142Z,13.40
2019-05-29T21:55:45.704Z,13.30
2019-05-29T21:58:11.241Z,13.30
2019-05-29T22:00:38.373Z,13.30
2019-05-29T22:03:04.405Z,13.30
2019-05-29T22:05:31.193Z,13.20
2019-05-29T22:07:57.216Z,13.20
2019-05-29T22:10:26.156Z,13.30
2019-05-29T22:12:50.372Z,13.30
2019-05-29T22:15:16.235Z,13.30
2019-05-29T22:17:42.240Z,13.20
2019-05-29T22:20:09.059Z,13.30
2019-05-29T22:22:35.042Z,13.20
2019-05-29T22:25:01.547Z,13.30
2019-05-29T22:27:27.129Z,13.30
2019-05-29T22:29:55.222Z,13.30
2019-05-29T22:32:20.696Z,13.40
2019-05-29T22:34:46.726Z,13.40
2019-05-29T22:37:12.745Z,13.50
2019-05-29T22:39:39.510Z,13.60
2019-05-29T22:42:05.538Z,13.50
2019-05-29T22:44:31.572Z,13.60
2019-05-29T22:46:57.832Z,13.70
2019-05-29T22:49:23.644Z,13.70
2019-05-29T22:51:51.627Z,13.80
2019-05-29T22:54:16.728Z,13.80
2019-05-29T22:56:42.732Z,13.80
2019-05-29T22:59:08.760Z,13.90
2019-05-29T23:01:34.777Z,13.90
2019-05-29T23:04:00.805Z,13.90
2019-05-29T23:06:26.806Z,14.00
2019-05-29T23:08:54.038Z,14.00
2019-05-29T23:11:18.911Z,14.00
2019-05-29T23:13:44.913Z,14.00
2019-05-29T23:16:10.985Z,14.10
2019-05-29T23:18:37.706Z,14.20
2019-05-29T23:21:03.737Z,14.10
2019-05-29T23:23:29.756Z,14.20
2019-05-29T23:25:56.501Z,14.20
2019-05-29T23:28:21.834Z,14.20
2019-05-29T23:30:48.594Z,14.20
2019-05-29T23:33:14.583Z,14.20
2019-05-29T23:35:40.587Z,14.30
2019-05-29T23:38:06.584Z,14.30
2019-05-29T23:40:32.599Z,14.30
2019-05-29T23:42:59.429Z,14.30
2019-05-29T23:45:24.704Z,14.30
2019-05-29T23:47:50.697Z,14.30
2019-05-29T23:50:16.711Z,14.40
2019-05-29T23:52:42.715Z,14.40
2019-05-29T23:55:08.734Z,14.40
2019-05-29T23:57:34.745Z,14.40
